createdAt,value
2022-10-17T00:02:06.738Z,8.47
2022-10-17T00:07:05.814Z,11.03
2022-10-17T00:09:32.819Z,9.20
2022-10-17T00:11:59.810Z,6.47
2022-10-17T00:14:26.811Z,8.63
2022-10-17T00:16:53.759Z,11.07
2022-10-17T00:19:20.705Z,9.53
2022-10-17T00:21:49.677Z,7.70
2022-10-17T00:24:16.907Z,10.77
2022-10-17T00:26:43.951Z,10.23
2022-10-17T00:29:10.939Z,8.00
2022-10-17T00:31:37.940Z,9.63
2022-10-17T00:34:04.951Z,7.90
2022-10-17T00:36:31.968Z,7.67
2022-10-17T00:38:59.611Z,7.03
2022-10-17T00:41:32.228Z,8.27
2022-10-17T00:44:03.905Z,6.47
2022-10-17T00:46:36.331Z,10.03
2022-10-17T00:49:08.752Z,7.00
2022-10-17T00:51:43.480Z,5.53
2022-10-17T00:54:13.311Z,6.07
2022-10-17T00:56:40.622Z,4.77
2022-10-17T00:59:11.001Z,4.60
2022-10-17T01:01:38.896Z,8.97
2022-10-17T01:04:06.030Z,5.30
2022-10-17T01:06:33.122Z,5.00
2022-10-17T01:09:00.126Z,5.47
2022-10-17T01:11:37.856Z,7.40
2022-10-17T01:14:29.416Z,3.13
2022-10-17T01:17:22.275Z,3.90
2022-10-17T01:20:21.663Z,3.63
2022-10-17T01:23:26.147Z,3.27
2022-10-17T01:25:56.440Z,6.03
2022-10-17T01:28:26.338Z,2.50
2022-10-17T01:31:08.519Z,2.40
2022-10-17T01:33:55.277Z,4.23
2022-10-17T01:36:25.241Z,5.60
2022-10-17T01:39:16.030Z,2.53
2022-10-17T01:41:46.542Z,1.17
2022-10-17T01:44:21.404Z,4.33
2022-10-17T01:49:26.970Z,0.67
2022-10-17T01:52:18.755Z,1.90
2022-10-17T01:54:54.329Z,1.90
2022-10-17T01:57:35.929Z,1.23
2022-10-17T02:00:06.365Z,1.47
2022-10-17T02:02:35.003Z,2.20
2022-10-17T02:05:04.158Z,1.80
2022-10-17T02:07:31.222Z,1.87
2022-10-17T02:09:58.259Z,1.87
2022-10-17T02:12:51.603Z,0.97
2022-10-17T02:15:39.435Z,0.97
2022-10-17T02:18:27.377Z,0.80
2022-10-17T02:20:59.537Z,0.83
2022-10-17T02:23:38.521Z,1.17
2022-10-17T02:26:26.797Z,1.90
2022-10-17T02:29:24.053Z,1.90
2022-10-17T02:32:01.539Z,1.00
2022-10-17T02:34:44.537Z,0.50
2022-10-17T02:37:15.236Z,0.60
2022-10-17T02:39:44.335Z,0.87
2022-10-17T02:42:13.301Z,2.53
2022-10-17T02:44:43.815Z,4.53
2022-10-17T02:47:29.479Z,0.63
2022-10-17T02:49:58.565Z,1.70
2022-10-17T02:52:46.104Z,2.20
2022-10-17T02:55:20.547Z,2.00
2022-10-17T02:57:56.110Z,1.07
2022-10-17T03:00:25.121Z,0.50
2022-10-17T03:02:53.691Z,3.13
2022-10-17T03:05:23.489Z,3.80
2022-10-17T03:07:51.307Z,1.17
2022-10-17T03:10:18.737Z,0.60
2022-10-17T03:12:45.703Z,3.07
2022-10-17T03:15:13.436Z,3.10
2022-10-17T03:17:40.488Z,1.40
2022-10-17T03:20:08.015Z,1.37
2022-10-17T03:22:35.080Z,0.60
2022-10-17T03:25:02.079Z,0.47
2022-10-17T03:27:29.297Z,1.80
2022-10-17T03:29:56.390Z,0.77
2022-10-17T03:32:23.356Z,0.90
2022-10-17T03:34:50.331Z,0.40
2022-10-17T03:37:17.367Z,4.57
2022-10-17T03:39:44.332Z,1.97
2022-10-17T03:42:11.341Z,0.53
2022-10-17T03:44:38.308Z,2.13
2022-10-17T03:47:07.292Z,1.97
2022-10-17T03:49:36.273Z,0.50
2022-10-17T03:52:04.313Z,2.10
2022-10-17T03:54:31.234Z,1.20
2022-10-17T03:56:58.209Z,2.70
2022-10-17T03:59:25.167Z,2.13
2022-10-17T04:01:52.317Z,0.83
2022-10-17T04:04:19.262Z,1.87
2022-10-17T04:06:46.262Z,2.77
2022-10-17T04:09:13.356Z,0.57
2022-10-17T04:11:40.433Z,4.30
2022-10-17T04:14:07.577Z,2.37
2022-10-17T04:16:34.539Z,2.13
2022-10-17T04:19:01.976Z,1.07
2022-10-17T04:21:29.852Z,2.07
2022-10-17T04:23:59.439Z,0.73
2022-10-17T04:26:27.522Z,0.80
2022-10-17T04:28:54.544Z,1.70
2022-10-17T04:31:21.918Z,1.40
2022-10-17T04:33:50.499Z,1.40
2022-10-17T04:36:19.597Z,1.73
2022-10-17T04:38:47.174Z,0.90
2022-10-17T04:41:17.626Z,1.10
2022-10-17T04:43:48.416Z,1.53
2022-10-17T04:46:18.016Z,2.50
2022-10-17T04:48:45.048Z,1.63
2022-10-17T04:51:14.698Z,3.77
2022-10-17T04:53:43.119Z,2.13
2022-10-17T04:56:11.145Z,1.23
2022-10-17T04:58:39.545Z,1.27
2022-10-17T05:01:13.108Z,1.83
2022-10-17T05:03:40.587Z,1.93
2022-10-17T05:06:13.510Z,1.67
2022-10-17T05:08:41.048Z,1.33
2022-10-17T05:11:34.042Z,2.33
2022-10-17T05:14:02.364Z,3.00
2022-10-17T05:16:30.035Z,1.20
2022-10-17T05:18:58.546Z,5.50
2022-10-17T05:21:27.536Z,4.87
2022-10-17T05:23:54.786Z,2.93
2022-10-17T05:26:22.570Z,2.50
2022-10-17T05:28:49.710Z,4.23
2022-10-17T05:31:16.781Z,1.13
2022-10-17T05:33:44.124Z,3.30
2022-10-17T05:36:11.413Z,3.37
2022-10-17T05:38:38.501Z,3.17
2022-10-17T05:41:06.395Z,2.17
2022-10-17T05:43:34.829Z,4.47
2022-10-17T05:46:06.193Z,2.10
2022-10-17T05:48:33.628Z,2.90
2022-10-17T05:51:02.896Z,4.67
2022-10-17T05:53:35.099Z,3.83
2022-10-17T05:56:04.410Z,31.47
2022-10-17T05:58:49.128Z,13.77
2022-10-17T06:01:17.171Z,6.03
2022-10-17T06:03:44.298Z,6.87
2022-10-17T06:06:14.068Z,1.63
2022-10-17T06:08:41.101Z,2.33
2022-10-17T06:11:10.143Z,4.17
2022-10-17T06:13:38.668Z,2.73
2022-10-17T06:16:06.463Z,1.27
2022-10-17T06:18:33.658Z,2.67
2022-10-17T06:21:10.061Z,2.43
2022-10-17T06:23:37.019Z,1.63
2022-10-17T06:26:06.195Z,2.17
2022-10-17T06:28:33.903Z,1.00
2022-10-17T06:31:07.990Z,1.43
2022-10-17T06:33:35.279Z,1.17
2022-10-17T06:36:03.061Z,3.63
2022-10-17T06:38:30.259Z,4.20
2022-10-17T06:41:08.867Z,1.20
2022-10-17T06:43:39.704Z,3.22
2022-10-17T06:46:07.062Z,2.90
2022-10-17T06:48:34.308Z,0.88
2022-10-17T06:51:02.968Z,2.40
2022-10-17T06:53:31.444Z,1.20
2022-10-17T06:56:03.014Z,1.58
2022-10-17T06:58:41.654Z,0.20
2022-10-17T07:01:13.674Z,1.98
2022-10-17T07:03:41.310Z,0.90
2022-10-17T07:06:08.650Z,1.38
2022-10-17T07:08:35.628Z,1.40
2022-10-17T07:11:14.770Z,2.05
2022-10-17T07:13:41.976Z,0.20
2022-10-17T07:16:09.993Z,1.63
2022-10-17T07:18:37.541Z,1.95
2022-10-17T07:21:05.301Z,1.65
2022-10-17T07:23:34.357Z,7.07
2022-10-17T07:26:02.649Z,4.35
2022-10-17T07:28:29.739Z,2.20
2022-10-17T07:30:56.695Z,0.10
2022-10-17T07:33:23.639Z,0.68
2022-10-17T07:35:52.653Z,0.25
2022-10-17T07:38:19.635Z,2.97
2022-10-17T07:40:46.680Z,2.13
2022-10-17T07:43:13.630Z,1.55
2022-10-17T07:45:41.543Z,1.42
2022-10-17T07:48:08.468Z,0.75
2022-10-17T07:50:35.459Z,1.10
2022-10-17T07:53:02.378Z,1.95
2022-10-17T07:55:29.287Z,1.00
2022-10-17T07:57:58.203Z,0.70
2022-10-17T08:00:25.152Z,3.70
2022-10-17T08:02:52.143Z,2.20
2022-10-17T08:05:19.108Z,1.85
2022-10-17T08:07:46.139Z,1.83
2022-10-17T08:10:15.000Z,1.20
2022-10-17T08:12:42.663Z,0.38
2022-10-17T08:15:10.676Z,0.55
2022-10-17T08:17:38.994Z,3.40
2022-10-17T08:20:06.718Z,0.70
2022-10-17T08:22:33.949Z,1.23
2022-10-17T08:25:00.873Z,1.65
2022-10-17T08:27:28.971Z,1.20
2022-10-17T08:29:55.968Z,1.27
2022-10-17T08:32:25.895Z,0.63
2022-10-17T08:34:56.566Z,2.92
2022-10-17T08:37:23.865Z,0.30
2022-10-17T08:39:50.851Z,2.30
2022-10-17T08:42:36.249Z,2.30
2022-10-17T08:45:26.351Z,0.40
2022-10-17T08:48:01.554Z,0.00
2022-10-17T08:50:53.316Z,0.75
2022-10-17T08:53:30.019Z,0.00
2022-10-17T08:55:58.141Z,1.15
2022-10-17T08:58:29.668Z,0.30
2022-10-17T09:01:36.906Z,3.45
2022-10-17T09:04:16.040Z,2.40
2022-10-17T09:07:05.803Z,2.08
2022-10-17T09:10:07.674Z,2.92
2022-10-17T09:13:05.326Z,0.45
2022-10-17T09:15:41.953Z,1.02
2022-10-17T09:18:22.049Z,0.30
2022-10-17T09:21:12.788Z,0.55
2022-10-17T09:24:09.067Z,0.85
2022-10-17T09:26:40.968Z,0.40
2022-10-17T09:29:27.015Z,2.83
2022-10-17T09:32:11.307Z,3.35
2022-10-17T09:34:38.399Z,0.20
2022-10-17T09:37:13.527Z,1.38
2022-10-17T09:39:41.830Z,1.58
2022-10-17T09:42:18.750Z,0.38
2022-10-17T09:45:14.414Z,0.00
2022-10-17T09:47:46.264Z,2.58
2022-10-17T09:50:35.809Z,1.40
2022-10-17T09:53:12.383Z,2.30
2022-10-17T09:55:48.395Z,1.38
2022-10-17T09:58:15.774Z,1.10
2022-10-17T10:00:45.728Z,2.22
2022-10-17T10:03:24.598Z,0.00
2022-10-17T10:06:03.518Z,3.30
2022-10-17T10:08:48.991Z,1.33
2022-10-17T10:11:17.752Z,1.42
2022-10-17T10:13:47.399Z,0.88
2022-10-17T10:16:22.259Z,0.40
2022-10-17T10:18:51.222Z,0.43
2022-10-17T10:21:23.729Z,0.08
2022-10-17T10:23:59.780Z,0.10
2022-10-17T10:26:32.040Z,2.20
2022-10-17T10:29:20.140Z,3.15
2022-10-17T10:31:48.139Z,1.23
2022-10-17T10:34:25.284Z,1.15
2022-10-17T10:37:18.790Z,0.13
2022-10-17T10:40:01.166Z,0.10
2022-10-17T10:42:36.972Z,0.65
2022-10-17T10:48:23.333Z,1.17
2022-10-17T10:50:53.270Z,1.20
2022-10-17T10:53:42.017Z,0.03
2022-10-17T10:56:18.455Z,0.85
2022-10-17T10:59:04.892Z,0.65
2022-10-17T11:01:56.196Z,1.35
2022-10-17T11:04:40.107Z,0.40
2022-10-17T11:07:30.111Z,0.20
2022-10-17T11:10:23.550Z,0.45
2022-10-17T11:12:53.220Z,0.15
2022-10-17T11:15:28.043Z,1.20
2022-10-17T11:18:22.733Z,0.63
2022-10-17T11:21:28.948Z,0.10
2022-10-17T11:24:24.348Z,0.40
2022-10-17T11:27:11.778Z,0.60
2022-10-17T11:29:41.465Z,0.32
2022-10-17T11:32:23.058Z,0.73
2022-10-17T11:35:03.269Z,0.50
2022-10-17T11:37:40.897Z,1.38
2022-10-17T11:40:21.926Z,0.65
2022-10-17T11:43:00.093Z,0.10
2022-10-17T11:45:33.291Z,0.32
2022-10-17T11:48:07.916Z,1.45
2022-10-17T11:53:37.177Z,0.35
2022-10-17T11:56:04.527Z,1.45
2022-10-17T11:59:02.609Z,1.25
2022-10-17T12:01:44.530Z,0.80
2022-10-17T12:04:36.466Z,0.55
2022-10-17T12:07:17.607Z,1.50
2022-10-17T12:10:13.790Z,1.33
2022-10-17T12:12:40.728Z,2.60
2022-10-17T12:15:13.541Z,1.30
2022-10-17T12:17:46.085Z,2.35
2022-10-17T12:20:24.942Z,0.45
2022-10-17T12:22:58.472Z,3.38
2022-10-17T12:25:32.123Z,1.30
2022-10-17T12:28:14.396Z,0.65
2022-10-17T12:30:57.161Z,1.30
2022-10-17T12:33:37.205Z,2.00
2022-10-17T12:36:21.182Z,1.42
2022-10-17T12:38:50.411Z,3.00
2022-10-17T12:41:38.360Z,0.52
2022-10-17T12:44:14.690Z,1.55
2022-10-17T12:47:08.025Z,0.73
2022-10-17T12:49:49.670Z,0.70
2022-10-17T12:52:35.160Z,0.52
2022-10-17T12:55:14.226Z,0.43
2022-10-17T12:57:53.946Z,0.68
2022-10-17T13:00:23.353Z,2.65
2022-10-17T13:02:54.311Z,1.88
2022-10-17T13:05:33.703Z,1.45
2022-10-17T13:08:03.678Z,0.57
2022-10-17T13:10:39.690Z,0.88
2022-10-17T13:13:17.412Z,1.02
2022-10-17T13:15:52.573Z,0.63
2022-10-17T13:18:23.939Z,0.93
2022-10-17T13:21:26.195Z,2.20
2022-10-17T13:23:54.494Z,1.58
2022-10-17T13:26:27.375Z,0.45
2022-10-17T13:29:06.065Z,2.28
2022-10-17T13:31:39.056Z,2.63
2022-10-17T13:34:24.060Z,2.25
2022-10-17T13:36:55.031Z,3.28
2022-10-17T13:39:44.967Z,2.00
2022-10-17T13:42:40.450Z,5.82
2022-10-17T13:45:22.464Z,6.03
2022-10-17T13:47:49.739Z,5.55
2022-10-17T13:50:44.528Z,4.03
2022-10-17T13:53:33.883Z,4.88
2022-10-17T13:56:27.405Z,5.53
2022-10-17T13:58:57.417Z,5.82
2022-10-17T14:01:27.276Z,6.75
2022-10-17T14:04:07.639Z,6.55
2022-10-17T14:06:48.009Z,7.47
2022-10-17T14:09:26.837Z,11.02
2022-10-17T14:12:19.290Z,8.02
2022-10-17T14:15:09.778Z,9.48
2022-10-17T14:17:38.618Z,5.18
2022-10-17T14:20:47.849Z,4.20
2022-10-17T14:23:21.360Z,6.90
2022-10-17T14:25:43.882Z,4.38
2022-10-17T14:28:16.926Z,6.30
2022-10-17T14:30:56.154Z,5.55
2022-10-17T14:33:32.437Z,5.93
2022-10-17T14:36:02.380Z,2.65
2022-10-17T14:38:30.339Z,5.00
2022-10-17T14:41:40.972Z,3.95
2022-10-17T14:44:08.697Z,4.10
2022-10-17T14:46:36.698Z,4.18
2022-10-17T14:49:20.557Z,3.38
2022-10-17T14:52:18.203Z,1.52
2022-10-17T14:54:50.003Z,3.35
2022-10-17T14:57:25.123Z,1.83
2022-10-17T14:59:54.252Z,2.60
2022-10-17T15:02:26.472Z,3.30
2022-10-17T15:04:54.241Z,4.03
2022-10-17T15:07:22.325Z,6.20
2022-10-17T15:09:51.015Z,4.75
2022-10-17T15:12:21.140Z,2.00
2022-10-17T15:14:48.771Z,2.05
2022-10-17T15:17:20.809Z,3.35
2022-10-17T15:19:49.094Z,4.18
2022-10-17T15:22:16.270Z,4.63
2022-10-17T15:24:45.915Z,2.90
2022-10-17T15:27:21.508Z,3.80
2022-10-17T15:29:49.323Z,1.45
2022-10-17T15:32:16.734Z,4.63
2022-10-17T15:34:44.192Z,3.20
2022-10-17T15:37:22.099Z,4.27
2022-10-17T15:39:54.896Z,6.25
2022-10-17T15:42:26.422Z,1.48
2022-10-17T15:44:54.005Z,3.50
2022-10-17T15:47:25.481Z,1.80
2022-10-17T15:49:53.265Z,7.83
2022-10-17T15:52:20.236Z,3.13
2022-10-17T15:54:47.362Z,3.60
2022-10-17T15:57:26.148Z,2.17
2022-10-17T15:59:54.713Z,2.33
2022-10-17T16:02:23.744Z,1.80
2022-10-17T16:04:52.310Z,1.63
2022-10-17T16:07:20.612Z,1.33
2022-10-17T16:09:48.047Z,1.43
2022-10-17T16:14:55.602Z,3.40
2022-10-17T16:17:22.602Z,4.13
2022-10-17T16:19:50.045Z,2.20
2022-10-17T16:22:36.600Z,9.00
2022-10-17T16:25:10.156Z,2.08
2022-10-17T16:27:37.769Z,3.43
2022-10-17T16:30:06.632Z,2.30
2022-10-17T16:32:34.222Z,2.13
2022-10-17T16:35:01.628Z,1.40
2022-10-17T16:37:28.637Z,4.50
2022-10-17T16:39:55.615Z,3.60
2022-10-17T16:42:22.879Z,3.77
2022-10-17T16:44:51.480Z,1.93
2022-10-17T16:47:19.337Z,5.27
2022-10-17T16:49:46.422Z,1.30
2022-10-17T16:52:13.719Z,3.63
2022-10-17T16:54:40.754Z,3.67
2022-10-17T16:57:07.927Z,2.63
2022-10-17T16:59:34.974Z,1.40
2022-10-17T17:02:01.957Z,4.50
2022-10-17T17:04:28.978Z,1.90
2022-10-17T17:06:55.916Z,1.50
2022-10-17T17:09:22.962Z,4.20
2022-10-17T17:11:50.004Z,4.27
2022-10-17T17:14:16.944Z,3.43
2022-10-17T17:16:43.885Z,4.63
2022-10-17T17:19:14.146Z,5.77
2022-10-17T17:21:47.573Z,5.57
2022-10-17T17:24:15.091Z,3.53
2022-10-17T17:26:42.152Z,2.97
2022-10-17T17:29:09.823Z,2.47
2022-10-17T17:31:38.969Z,3.33
2022-10-17T17:34:06.343Z,2.73
2022-10-17T17:36:36.447Z,2.47
2022-10-17T17:39:11.093Z,3.07
2022-10-17T17:41:39.215Z,6.00
2022-10-17T17:44:06.700Z,3.00
2022-10-17T17:46:33.706Z,3.07
2022-10-17T17:49:01.090Z,5.53
2022-10-17T17:51:29.429Z,1.73
2022-10-17T17:53:56.936Z,3.60
2022-10-17T17:56:26.893Z,3.03
2022-10-17T17:58:56.513Z,2.83
2022-10-17T18:01:25.600Z,2.63
2022-10-17T18:03:54.011Z,3.47
2022-10-17T18:06:22.179Z,3.20
2022-10-17T18:08:52.236Z,8.17
2022-10-17T18:11:21.899Z,7.37
2022-10-17T18:13:57.587Z,9.13
2022-10-17T18:16:26.042Z,9.33
2022-10-17T18:18:53.151Z,6.30
2022-10-17T18:21:20.338Z,3.57
2022-10-17T18:23:48.883Z,3.53
2022-10-17T18:26:16.287Z,3.80
2022-10-17T18:28:44.296Z,3.53
2022-10-17T18:31:15.815Z,11.77
2022-10-17T18:33:44.679Z,9.13
2022-10-17T18:36:13.916Z,10.40
2022-10-17T18:38:41.404Z,5.20
2022-10-17T18:41:12.603Z,9.43
2022-10-17T18:43:41.598Z,3.03
2022-10-17T18:46:14.015Z,7.13
2022-10-17T18:48:44.606Z,7.33
2022-10-17T18:51:13.151Z,5.97
2022-10-17T18:53:41.756Z,7.30
2022-10-17T18:56:09.675Z,6.37
2022-10-17T18:58:40.712Z,7.03
2022-10-17T19:01:10.813Z,5.77
2022-10-17T19:03:38.331Z,7.07
2022-10-17T19:06:07.513Z,4.30
2022-10-17T19:08:35.732Z,6.20
2022-10-17T19:11:11.280Z,6.13
2022-10-17T19:13:38.652Z,6.87
2022-10-17T19:16:10.226Z,7.87
2022-10-17T19:18:37.315Z,6.23
2022-10-17T19:21:06.769Z,7.87
2022-10-17T19:23:35.969Z,5.50
2022-10-17T19:26:11.197Z,4.77
2022-10-17T19:28:42.113Z,2.60
2022-10-17T19:31:11.177Z,5.77
2022-10-17T19:33:40.009Z,4.50
2022-10-17T19:36:10.579Z,6.10
2022-10-17T19:38:37.767Z,5.50
2022-10-17T19:41:10.522Z,5.50
2022-10-17T19:43:38.983Z,6.23
2022-10-17T19:46:09.015Z,7.10
2022-10-17T19:48:37.467Z,5.83
2022-10-17T19:51:05.630Z,11.20
2022-10-17T19:53:32.881Z,8.43
2022-10-17T19:56:00.040Z,8.73
2022-10-17T19:58:27.627Z,7.03
2022-10-17T20:00:57.395Z,4.77
2022-10-17T20:03:27.868Z,4.70
2022-10-17T20:05:55.295Z,4.80
2022-10-17T20:08:22.546Z,4.83
2022-10-17T20:10:49.519Z,3.97
2022-10-17T20:13:16.490Z,5.50
2022-10-17T20:15:53.219Z,8.40
2022-10-17T20:18:20.191Z,5.87
2022-10-17T20:20:47.166Z,5.73
2022-10-17T20:23:14.547Z,7.47
2022-10-17T20:25:41.550Z,13.23
2022-10-17T20:28:08.656Z,5.37
2022-10-17T20:30:35.965Z,4.93
2022-10-17T20:33:02.898Z,2.77
2022-10-17T20:35:29.916Z,6.27
2022-10-17T20:37:57.207Z,1.93
2022-10-17T20:40:34.600Z,2.20
2022-10-17T20:43:04.256Z,1.30
2022-10-17T20:45:44.227Z,4.03
2022-10-17T20:48:18.289Z,3.73
2022-10-17T20:50:45.266Z,5.30
2022-10-17T20:56:18.588Z,6.03
2022-10-17T20:58:45.578Z,6.87
2022-10-17T21:01:12.595Z,9.17
2022-10-17T21:03:42.495Z,9.73
2022-10-17T21:06:12.961Z,11.77
2022-10-17T21:08:40.256Z,18.20
2022-10-17T21:11:12.409Z,25.03
2022-10-17T21:13:40.055Z,18.63
2022-10-17T21:16:15.465Z,11.00
2022-10-17T21:18:43.349Z,7.43
2022-10-17T21:21:12.585Z,6.47
2022-10-17T21:23:40.902Z,7.50
2022-10-17T21:26:09.453Z,9.17
2022-10-17T21:28:37.658Z,8.03
2022-10-17T21:31:13.615Z,9.87
2022-10-17T21:33:41.513Z,12.17
2022-10-17T21:36:09.074Z,14.30
2022-10-17T21:38:39.984Z,13.23
2022-10-17T21:41:08.448Z,8.33
2022-10-17T21:43:36.496Z,8.87
2022-10-17T21:46:05.387Z,5.43
2022-10-17T21:48:33.319Z,7.77
2022-10-17T21:51:06.652Z,9.20
2022-10-17T21:53:34.181Z,4.87
2022-10-17T21:56:14.910Z,3.90
2022-10-17T21:58:42.999Z,1.07
2022-10-17T22:01:40.564Z,3.37
2022-10-17T22:04:11.188Z,6.83
2022-10-17T22:06:41.064Z,3.00
2022-10-17T22:09:17.960Z,6.40
2022-10-17T22:11:47.833Z,6.13
2022-10-17T22:14:17.778Z,5.37
2022-10-17T22:16:46.474Z,5.37
2022-10-17T22:19:16.236Z,9.73
2022-10-17T22:21:43.213Z,6.87
2022-10-17T22:24:14.220Z,5.10
2022-10-17T22:26:42.523Z,6.20
2022-10-17T22:29:10.578Z,5.73
2022-10-17T22:31:38.576Z,7.73
2022-10-17T22:34:06.808Z,7.30
2022-10-17T22:36:34.615Z,4.30
2022-10-17T22:39:01.696Z,2.40
2022-10-17T22:41:28.892Z,3.53
2022-10-17T22:43:56.033Z,3.77
2022-10-17T22:46:23.142Z,2.03
2022-10-17T22:48:50.155Z,3.50
2022-10-17T22:51:17.694Z,3.40
2022-10-17T22:53:45.043Z,5.63
2022-10-17T22:56:14.936Z,5.33
2022-10-17T22:58:42.031Z,3.37
2022-10-17T23:01:13.638Z,1.47
2022-10-17T23:03:40.734Z,2.20
2022-10-17T23:06:07.987Z,3.03
2022-10-17T23:08:35.237Z,4.23
2022-10-17T23:11:02.255Z,1.90
2022-10-17T23:13:29.199Z,1.83
2022-10-17T23:15:57.484Z,2.57
2022-10-17T23:18:25.515Z,1.90
2022-10-17T23:20:52.914Z,2.37
2022-10-17T23:23:20.151Z,2.83
2022-10-17T23:25:47.456Z,2.73
2022-10-17T23:28:14.431Z,4.27
2022-10-17T23:30:41.436Z,2.90
2022-10-17T23:33:10.880Z,6.80
2022-10-17T23:35:37.836Z,3.47
2022-10-17T23:38:07.560Z,2.97
2022-10-17T23:40:35.441Z,2.30
2022-10-17T23:43:03.098Z,2.40
2022-10-17T23:45:33.509Z,1.80
2022-10-17T23:48:04.943Z,3.70
2022-10-17T23:50:31.870Z,3.97
2022-10-17T23:52:58.805Z,2.07
2022-10-17T23:55:25.934Z,1.93
2022-10-17T23:57:53.143Z,4.07
